createdAt,value
2018-07-07T00:00:33.080Z,18.30
2018-07-07T00:03:02.476Z,18.30
2018-07-07T00:05:31.817Z,18.20
2018-07-07T00:08:01.336Z,18.20
2018-07-07T00:10:30.831Z,18.20
2018-07-07T00:13:00.333Z,18.10
2018-07-07T00:15:30.167Z,18.10
2018-07-07T00:17:59.639Z,18.00
2018-07-07T00:20:28.959Z,18.00
2018-07-07T00:22:58.246Z,18.00
2018-07-07T00:25:27.679Z,18.00
2018-07-07T00:27:57.141Z,18.00
2018-07-07T00:30:26.469Z,17.90
2018-07-07T00:32:55.939Z,17.90
2018-07-07T00:35:25.468Z,17.90
2018-07-07T00:37:54.979Z,17.90
2018-07-07T00:40:24.315Z,17.80
2018-07-07T00:42:53.844Z,17.80
2018-07-07T00:45:23.340Z,17.80
2018-07-07T00:47:52.699Z,17.80
2018-07-07T00:50:21.950Z,17.80
2018-07-07T00:52:51.376Z,17.80
2018-07-07T00:55:20.794Z,17.80
2018-07-07T00:57:50.172Z,17.70
2018-07-07T01:00:19.535Z,17.70
2018-07-07T01:02:49.102Z,17.70
2018-07-07T01:05:29.666Z,17.70
2018-07-07T01:07:59.054Z,17.70
2018-07-07T01:12:58.192Z,17.70
2018-07-07T01:15:28.357Z,17.70
2018-07-07T01:17:57.797Z,17.70
2018-07-07T01:20:27.072Z,17.70
2018-07-07T01:22:56.400Z,17.70
2018-07-07T01:25:26.603Z,17.70
2018-07-07T01:27:55.862Z,17.70
2018-07-07T01:30:25.247Z,17.70
2018-07-07T01:32:55.068Z,17.60
2018-07-07T01:35:24.854Z,17.60
2018-07-07T01:37:54.464Z,17.60
2018-07-07T01:40:23.985Z,17.60
2018-07-07T01:42:53.544Z,17.60
2018-07-07T01:45:23.075Z,17.50
2018-07-07T01:47:52.415Z,17.50
2018-07-07T02:00:06.917Z,17.50
2018-07-07T02:02:36.335Z,17.40
2018-07-07T02:05:05.702Z,17.40
2018-07-07T02:07:34.966Z,17.30
2018-07-07T02:10:05.056Z,17.30
2018-07-07T02:12:34.407Z,17.30
2018-07-07T02:15:03.841Z,17.30
2018-07-07T02:17:33.204Z,17.30
2018-07-07T02:20:02.601Z,17.40
2018-07-07T02:22:32.475Z,17.50
2018-07-07T02:25:01.791Z,17.50
2018-07-07T02:27:31.150Z,17.60
2018-07-07T02:30:00.514Z,17.70
2018-07-07T02:32:29.807Z,17.60
2018-07-07T02:34:59.239Z,17.60
2018-07-07T02:37:28.618Z,17.60
2018-07-07T02:39:58.141Z,17.50
2018-07-07T02:42:27.590Z,17.50
2018-07-07T02:44:56.913Z,17.50
2018-07-07T02:47:26.234Z,17.50
2018-07-07T02:49:56.499Z,17.50
2018-07-07T02:52:25.854Z,17.50
2018-07-07T02:54:55.181Z,17.50
2018-07-07T02:57:24.601Z,17.50
2018-07-07T02:59:53.962Z,17.40
2018-07-07T03:02:23.373Z,17.40
2018-07-07T03:04:52.901Z,17.40
2018-07-07T03:07:22.416Z,17.40
2018-07-07T03:09:52.251Z,17.40
2018-07-07T03:12:21.590Z,17.30
2018-07-07T03:14:51.041Z,17.30
2018-07-07T03:17:20.298Z,17.30
2018-07-07T03:19:49.803Z,17.20
2018-07-07T03:22:19.270Z,17.20
2018-07-07T03:24:48.693Z,17.10
2018-07-07T03:27:18.435Z,17.00
2018-07-07T03:29:47.789Z,17.00
2018-07-07T03:32:17.254Z,17.00
2018-07-07T03:34:46.559Z,16.90
2018-07-07T03:37:15.886Z,16.90
2018-07-07T03:39:45.424Z,16.90
2018-07-07T03:42:15.035Z,16.90
2018-07-07T03:44:44.496Z,17.00
2018-07-07T03:47:14.567Z,17.00
2018-07-07T03:49:43.874Z,17.00
2018-07-07T03:52:13.564Z,17.00
2018-07-07T03:54:43.039Z,17.00
2018-07-07T03:57:12.367Z,17.10
2018-07-07T03:59:41.783Z,17.20
2018-07-07T04:02:11.398Z,17.30
2018-07-07T04:04:41.479Z,17.40
2018-07-07T04:07:11.073Z,17.40
2018-07-07T04:09:40.948Z,17.50
2018-07-07T04:12:11.475Z,17.50
2018-07-07T04:14:40.882Z,17.60
2018-07-07T04:17:10.183Z,17.60
2018-07-07T04:19:39.470Z,17.60
2018-07-07T04:22:08.782Z,17.50
2018-07-07T04:24:38.253Z,17.50
2018-07-07T04:27:08.445Z,17.50
2018-07-07T04:29:38.090Z,17.50
2018-07-07T04:34:37.147Z,17.50
2018-07-07T04:37:06.818Z,17.70
2018-07-07T04:39:36.231Z,17.80
2018-07-07T04:42:05.564Z,17.80
2018-07-07T04:44:35.466Z,17.90
2018-07-07T04:47:04.746Z,18.10
2018-07-07T04:49:34.288Z,18.10
2018-07-07T04:52:03.901Z,18.20
2018-07-07T04:54:33.452Z,18.10
2018-07-07T04:57:02.911Z,18.20
2018-07-07T04:59:32.410Z,18.20
2018-07-07T05:02:02.021Z,18.30
2018-07-07T05:07:00.502Z,18.30
2018-07-07T05:09:29.799Z,18.40
2018-07-07T05:11:59.183Z,18.50
2018-07-07T05:14:28.516Z,18.70
2018-07-07T05:16:57.789Z,18.90
2018-07-07T05:19:27.387Z,19.00
2018-07-07T05:21:56.714Z,19.00
2018-07-07T05:24:26.102Z,19.20
2018-07-07T05:26:55.501Z,19.20
2018-07-07T05:29:25.043Z,19.30
2018-07-07T05:31:54.515Z,19.40
2018-07-07T05:34:23.802Z,19.60
2018-07-07T05:36:53.332Z,19.80
2018-07-07T05:39:22.636Z,20.00
2018-07-07T05:41:52.320Z,20.10
2018-07-07T05:44:21.709Z,20.00
2018-07-07T05:46:51.526Z,20.00
2018-07-07T05:49:21.064Z,19.80
2018-07-07T05:51:50.387Z,19.60
2018-07-07T05:54:19.758Z,19.50
2018-07-07T05:56:49.136Z,19.70
2018-07-07T05:59:18.547Z,19.80
2018-07-07T06:01:47.998Z,19.90
2018-07-07T06:04:17.268Z,19.80
2018-07-07T06:06:46.581Z,20.10
2018-07-07T06:11:45.203Z,20.40
2018-07-07T06:14:14.547Z,20.50
2018-07-07T06:16:43.904Z,20.60
2018-07-07T06:19:13.283Z,20.50
2018-07-07T06:21:42.954Z,20.60
2018-07-07T06:24:12.495Z,20.60
2018-07-07T06:26:41.844Z,20.80
2018-07-07T06:29:11.341Z,20.90
2018-07-07T06:31:40.728Z,21.00
2018-07-07T06:34:10.174Z,21.10
2018-07-07T06:36:39.558Z,21.30
2018-07-07T06:39:08.874Z,21.50
2018-07-07T06:44:07.845Z,22.00
2018-07-07T06:46:37.315Z,22.20
2018-07-07T06:51:35.630Z,22.70
2018-07-07T06:54:05.175Z,22.90
2018-07-07T06:59:03.421Z,22.80
2018-07-07T07:01:32.811Z,23.00
2018-07-07T07:04:02.543Z,23.10
2018-07-07T07:06:31.979Z,23.60
2018-07-07T07:09:01.364Z,23.80
2018-07-07T07:11:30.918Z,23.90
2018-07-07T07:14:00.475Z,24.20
2018-07-07T07:16:29.767Z,24.40
2018-07-07T07:18:59.140Z,24.40
2018-07-07T07:21:28.595Z,24.20
2018-07-07T07:26:26.994Z,24.30
2018-07-07T07:28:56.317Z,24.00
2018-07-07T07:31:25.627Z,24.10
2018-07-07T07:33:55.167Z,24.20
2018-07-07T07:36:39.626Z,24.70
2018-07-07T07:39:09.023Z,24.90
2018-07-07T07:41:38.481Z,25.10
2018-07-07T07:44:08.107Z,25.00
2018-07-07T07:46:37.468Z,25.10
2018-07-07T07:49:07.470Z,25.10
2018-07-07T07:51:37.029Z,25.30
2018-07-07T07:54:06.687Z,25.50
2018-07-07T07:56:36.239Z,26.00
2018-07-07T07:59:06.930Z,26.30
2018-07-07T08:01:36.437Z,26.40
2018-07-07T08:04:05.768Z,26.40
2018-07-07T08:06:35.158Z,26.40
2018-07-07T08:09:04.753Z,26.50
2018-07-07T08:11:34.094Z,26.60
2018-07-07T08:14:04.120Z,26.80
2018-07-07T08:16:33.694Z,26.60
2018-07-07T08:19:03.060Z,26.70
2018-07-07T08:21:33.932Z,26.90
2018-07-07T08:24:03.427Z,26.80
2018-07-07T08:26:32.786Z,26.40
2018-07-07T08:29:02.138Z,26.30
2018-07-07T08:31:31.545Z,26.00
2018-07-07T08:34:01.775Z,25.80
2018-07-07T08:36:31.161Z,25.90
2018-07-07T08:39:00.500Z,25.80
2018-07-07T08:41:29.984Z,25.80
2018-07-07T08:43:59.938Z,25.80
2018-07-07T08:46:29.332Z,25.90
2018-07-07T08:48:58.662Z,25.90
2018-07-07T08:51:27.881Z,25.90
2018-07-07T08:53:58.142Z,26.00
2018-07-07T08:56:27.638Z,25.90
2018-07-07T08:58:56.973Z,25.90
2018-07-07T09:01:26.495Z,26.10
2018-07-07T09:03:55.961Z,26.40
2018-07-07T09:06:25.337Z,26.50
2018-07-07T09:08:54.902Z,26.30
2018-07-07T09:11:24.248Z,26.00
2018-07-07T09:13:53.750Z,25.80
2018-07-07T09:16:23.151Z,25.50
2018-07-07T09:18:53.087Z,25.50
2018-07-07T09:21:22.998Z,25.70
2018-07-07T09:23:55.106Z,25.90
2018-07-07T09:26:24.710Z,26.00
2018-07-07T09:28:54.050Z,26.00
2018-07-07T09:31:23.316Z,25.60
2018-07-07T09:33:52.631Z,25.60
2018-07-07T09:36:22.237Z,25.80
2018-07-07T09:38:51.686Z,26.00
2018-07-07T09:41:21.175Z,25.70
2018-07-07T09:43:50.503Z,25.70
2018-07-07T09:46:19.723Z,25.80
2018-07-07T09:48:49.100Z,25.80
2018-07-07T09:51:18.413Z,25.80
2018-07-07T09:53:47.706Z,25.90
2018-07-07T09:56:17.195Z,26.00
2018-07-07T09:58:46.502Z,26.00
2018-07-07T10:01:15.874Z,25.90
2018-07-07T10:03:45.220Z,25.90
2018-07-07T10:06:14.479Z,25.90
2018-07-07T10:08:43.730Z,26.00
2018-07-07T10:11:13.029Z,26.20
2018-07-07T10:13:42.392Z,26.30
2018-07-07T10:16:11.723Z,26.30
2018-07-07T10:18:41.289Z,26.30
2018-07-07T10:21:10.604Z,26.40
2018-07-07T10:23:40.008Z,26.40
2018-07-07T10:26:09.326Z,26.40
2018-07-07T10:28:38.690Z,26.40
2018-07-07T10:31:08.719Z,26.60
2018-07-07T10:33:38.024Z,26.70
2018-07-07T10:36:07.424Z,26.80
2018-07-07T10:38:36.747Z,26.90
2018-07-07T10:41:06.229Z,26.80
2018-07-07T10:43:35.622Z,26.60
2018-07-07T10:46:05.216Z,26.70
2018-07-07T10:48:34.470Z,26.60
2018-07-07T10:51:03.841Z,26.60
2018-07-07T10:53:33.255Z,26.80
2018-07-07T10:56:03.445Z,26.70
2018-07-07T10:58:32.942Z,26.60
2018-07-07T11:01:02.481Z,26.50
2018-07-07T11:03:31.720Z,26.50
2018-07-07T11:06:00.996Z,26.40
2018-07-07T11:08:30.234Z,26.60
2018-07-07T11:10:59.522Z,26.60
2018-07-07T11:13:28.777Z,26.60
2018-07-07T11:15:58.245Z,26.60
2018-07-07T11:18:28.259Z,26.60
2018-07-07T11:20:58.080Z,26.60
2018-07-07T11:25:57.359Z,26.50
2018-07-07T11:28:26.985Z,26.50
2018-07-07T11:30:56.609Z,26.50
2018-07-07T11:33:25.879Z,26.60
2018-07-07T11:35:55.105Z,26.50
2018-07-07T11:38:24.387Z,26.60
2018-07-07T11:40:54.234Z,26.70
2018-07-07T11:43:23.570Z,26.70
2018-07-07T11:45:52.883Z,26.70
2018-07-07T11:48:22.195Z,26.60
2018-07-07T11:50:51.595Z,26.50
2018-07-07T11:53:21.370Z,26.50
2018-07-07T11:55:52.973Z,26.60
2018-07-07T11:58:22.675Z,26.70
2018-07-07T12:00:51.958Z,26.80
2018-07-07T12:03:21.258Z,26.80
2018-07-07T12:05:50.499Z,26.80
2018-07-07T12:08:19.786Z,26.80
2018-07-07T12:10:48.966Z,26.90
2018-07-07T12:13:18.241Z,26.90
2018-07-07T12:15:47.518Z,26.90
2018-07-07T12:18:16.776Z,27.00
2018-07-07T12:20:45.995Z,26.90
2018-07-07T12:23:15.235Z,27.00
2018-07-07T12:25:44.481Z,26.80
2018-07-07T12:28:13.836Z,26.80
2018-07-07T12:30:43.140Z,26.80
2018-07-07T12:33:12.550Z,26.80
2018-07-07T12:35:42.396Z,26.70
2018-07-07T12:38:11.697Z,26.80
2018-07-07T12:40:41.795Z,26.70
2018-07-07T12:43:13.559Z,26.80
2018-07-07T12:45:42.820Z,26.90
2018-07-07T12:48:12.067Z,26.90
2018-07-07T12:50:41.360Z,26.90
2018-07-07T12:53:10.700Z,26.90
2018-07-07T12:55:39.993Z,27.00
2018-07-07T12:58:09.298Z,27.00
2018-07-07T13:00:38.569Z,26.90
2018-07-07T13:03:07.758Z,27.00
2018-07-07T13:05:37.073Z,27.00
2018-07-07T13:08:06.387Z,27.00
2018-07-07T13:10:35.618Z,27.00
2018-07-07T13:13:04.957Z,27.00
2018-07-07T13:15:34.182Z,27.10
2018-07-07T13:18:03.484Z,27.00
2018-07-07T13:20:32.743Z,27.00
2018-07-07T13:23:02.016Z,27.00
2018-07-07T13:25:31.306Z,26.90
2018-07-07T13:28:00.655Z,26.90
2018-07-07T13:30:29.912Z,26.80
2018-07-07T13:32:59.241Z,26.80
2018-07-07T13:35:28.470Z,26.90
2018-07-07T13:37:57.812Z,26.90
2018-07-07T13:40:27.114Z,26.90
2018-07-07T13:42:56.384Z,27.00
2018-07-07T13:45:25.643Z,27.10
2018-07-07T13:47:55.069Z,27.10
2018-07-07T13:50:24.301Z,27.00
2018-07-07T13:52:53.669Z,26.90
2018-07-07T13:55:22.855Z,26.90
2018-07-07T13:57:52.074Z,26.80
2018-07-07T14:00:21.314Z,26.80
2018-07-07T14:02:50.548Z,26.80
2018-07-07T14:05:19.982Z,26.80
2018-07-07T14:07:49.354Z,26.80
2018-07-07T14:10:18.693Z,26.80
2018-07-07T14:12:48.119Z,26.90
2018-07-07T14:15:17.350Z,26.90
2018-07-07T14:17:46.612Z,26.80
2018-07-07T14:20:15.948Z,26.90
2018-07-07T14:22:45.246Z,26.90
2018-07-07T14:25:14.546Z,26.70
2018-07-07T14:27:43.929Z,26.70
2018-07-07T14:30:13.227Z,26.70
2018-07-07T14:32:42.580Z,26.70
2018-07-07T14:35:11.954Z,26.70
2018-07-07T14:37:41.181Z,26.70
2018-07-07T14:40:10.459Z,26.70
2018-07-07T14:45:15.594Z,26.90
2018-07-07T14:47:46.119Z,26.90
2018-07-07T14:50:15.818Z,26.80
2018-07-07T14:52:45.537Z,26.90
2018-07-07T14:55:17.019Z,26.70
2018-07-07T14:57:46.583Z,26.80
2018-07-07T15:00:22.842Z,26.90
2018-07-07T15:02:53.279Z,26.80
2018-07-07T15:05:22.642Z,26.60
2018-07-07T15:07:52.367Z,26.70
2018-07-07T15:10:21.719Z,26.70
2018-07-07T15:12:51.744Z,26.80
2018-07-07T15:15:21.434Z,26.70
2018-07-07T15:17:50.711Z,26.60
2018-07-07T15:20:19.998Z,26.60
2018-07-07T15:22:49.848Z,26.60
2018-07-07T15:25:19.109Z,26.70
2018-07-07T15:27:48.376Z,26.60
2018-07-07T15:30:17.752Z,26.60
2018-07-07T15:32:47.070Z,26.50
2018-07-07T15:35:16.464Z,26.50
2018-07-07T15:37:45.713Z,26.70
2018-07-07T15:40:14.991Z,26.60
2018-07-07T15:42:44.194Z,26.60
2018-07-07T15:45:13.566Z,26.60
2018-07-07T15:47:42.824Z,26.60
2018-07-07T15:50:12.130Z,26.60
2018-07-07T15:52:41.402Z,26.60
2018-07-07T15:55:10.891Z,26.50
2018-07-07T15:57:40.188Z,26.50
2018-07-07T16:00:10.469Z,26.40
2018-07-07T16:02:40.736Z,26.40
2018-07-07T16:05:10.063Z,26.50
2018-07-07T16:07:39.291Z,26.50
2018-07-07T16:10:08.651Z,26.40
2018-07-07T16:12:37.902Z,26.30
2018-07-07T16:15:07.191Z,26.30
2018-07-07T16:17:36.536Z,26.30
2018-07-07T16:20:05.885Z,26.30
2018-07-07T16:22:35.183Z,26.30
2018-07-07T16:25:04.594Z,26.30
2018-07-07T16:27:33.872Z,26.20
2018-07-07T16:30:03.184Z,26.10
2018-07-07T16:32:32.522Z,26.00
2018-07-07T16:35:01.893Z,26.00
2018-07-07T16:37:31.204Z,26.00
2018-07-07T16:40:00.540Z,26.10
2018-07-07T16:42:29.852Z,26.00
2018-07-07T16:44:59.859Z,26.10
2018-07-07T16:47:29.147Z,26.00
2018-07-07T16:49:58.529Z,25.90
2018-07-07T16:52:28.515Z,25.80
2018-07-07T16:54:57.835Z,25.80
2018-07-07T16:57:27.140Z,25.80
2018-07-07T16:59:56.456Z,25.70
2018-07-07T17:02:25.747Z,25.70
2018-07-07T17:04:55.164Z,25.70
2018-07-07T17:07:24.585Z,25.70
2018-07-07T17:09:54.336Z,25.70
2018-07-07T17:12:24.015Z,25.70
2018-07-07T17:14:53.361Z,25.70
2018-07-07T17:17:23.695Z,25.60
2018-07-07T17:19:52.965Z,25.50
2018-07-07T17:22:22.546Z,25.50
2018-07-07T17:24:51.871Z,25.40
2018-07-07T17:27:21.231Z,25.50
2018-07-07T17:29:50.615Z,25.70
2018-07-07T17:32:19.981Z,25.70
2018-07-07T17:34:49.322Z,25.70
2018-07-07T17:37:18.678Z,25.70
2018-07-07T17:39:48.110Z,25.60
2018-07-07T17:42:18.006Z,25.50
2018-07-07T17:44:47.362Z,25.50
2018-07-07T17:47:16.647Z,25.40
2018-07-07T17:49:45.962Z,25.40
2018-07-07T17:52:15.426Z,25.40
2018-07-07T17:54:44.744Z,25.30
2018-07-07T17:57:13.982Z,25.20
2018-07-07T17:59:43.327Z,25.10
2018-07-07T18:02:12.676Z,25.10
2018-07-07T18:04:42.025Z,25.00
2018-07-07T18:07:11.231Z,25.00
2018-07-07T18:09:40.531Z,25.00
2018-07-07T18:14:38.750Z,24.90
2018-07-07T18:19:36.796Z,24.90
2018-07-07T18:22:06.252Z,25.00
2018-07-07T18:24:35.601Z,24.90
2018-07-07T18:27:05.162Z,24.90
2018-07-07T18:29:34.443Z,24.80
2018-07-07T18:32:04.729Z,24.90
2018-07-07T18:34:34.094Z,24.80
2018-07-07T18:37:03.411Z,24.80
2018-07-07T18:39:32.716Z,24.70
2018-07-07T18:42:01.986Z,24.70
2018-07-07T18:44:31.280Z,24.60
2018-07-07T18:47:00.624Z,24.50
2018-07-07T18:49:29.874Z,24.50
2018-07-07T18:51:59.187Z,24.50
2018-07-07T18:54:28.536Z,24.40
2018-07-07T18:56:57.791Z,24.40
2018-07-07T18:59:27.051Z,24.30
2018-07-07T19:01:56.379Z,24.30
2018-07-07T19:04:25.559Z,24.20
2018-07-07T19:06:55.001Z,24.20
2018-07-07T19:09:24.287Z,24.10
2018-07-07T19:11:53.575Z,24.00
2018-07-07T19:14:22.902Z,23.90
2018-07-07T19:16:52.287Z,23.90
2018-07-07T19:19:21.615Z,23.90
2018-07-07T19:21:56.189Z,23.80
2018-07-07T19:24:30.914Z,23.80
2018-07-07T19:27:03.817Z,23.80
2018-07-07T19:29:33.219Z,23.70
2018-07-07T19:32:07.866Z,23.60
2018-07-07T19:34:42.650Z,23.60
2018-07-07T19:37:12.551Z,23.50
2018-07-07T19:39:41.971Z,23.40
2018-07-07T19:42:11.318Z,23.40
2018-07-07T19:44:40.532Z,23.30
2018-07-07T19:47:10.128Z,23.20
2018-07-07T19:49:40.179Z,23.10
2018-07-07T19:52:10.072Z,23.10
2018-07-07T19:54:39.292Z,23.00
2018-07-07T19:57:08.596Z,22.90
2018-07-07T19:59:37.964Z,22.90
2018-07-07T20:02:07.544Z,22.80
2018-07-07T20:04:36.832Z,22.70
2018-07-07T20:07:06.054Z,22.70
2018-07-07T20:09:35.289Z,22.60
2018-07-07T20:12:04.751Z,22.60
2018-07-07T20:14:34.097Z,22.60
2018-07-07T20:17:05.491Z,22.50
2018-07-07T20:19:52.350Z,22.40
2018-07-07T20:22:21.765Z,22.40
2018-07-07T20:24:51.145Z,22.40
2018-07-07T20:27:26.166Z,22.30
2018-07-07T20:29:56.080Z,22.40
2018-07-07T20:32:31.977Z,22.30
2018-07-07T20:35:02.032Z,22.20
2018-07-07T20:37:31.538Z,22.20
2018-07-07T20:40:01.419Z,22.20
2018-07-07T20:42:31.666Z,22.20
2018-07-07T20:45:01.021Z,22.10
2018-07-07T20:47:30.397Z,22.10
2018-07-07T20:49:59.807Z,22.10
2018-07-07T20:52:29.344Z,22.00
2018-07-07T20:54:58.899Z,21.90
2018-07-07T20:57:28.917Z,21.90
2018-07-07T20:59:58.271Z,21.80
2018-07-07T21:02:28.119Z,21.80
2018-07-07T21:04:57.599Z,21.70
2018-07-07T21:07:27.352Z,21.60
2018-07-07T21:09:56.702Z,21.60
2018-07-07T21:12:25.973Z,21.50
2018-07-07T21:14:55.326Z,21.50
2018-07-07T21:17:24.736Z,21.50
2018-07-07T21:19:54.650Z,21.40
2018-07-07T21:22:24.142Z,21.30
2018-07-07T21:24:53.833Z,21.20
2018-07-07T21:27:23.203Z,21.20
2018-07-07T21:29:52.575Z,21.10
2018-07-07T21:32:22.072Z,21.00
2018-07-07T21:34:51.576Z,20.90
2018-07-07T21:37:21.164Z,20.70
2018-07-07T21:39:50.549Z,20.60
2018-07-07T21:42:20.094Z,20.50
2018-07-07T21:44:49.713Z,20.40
2018-07-07T21:47:27.283Z,20.40
2018-07-07T21:49:56.825Z,20.30
2018-07-07T21:52:27.381Z,20.20
2018-07-07T21:54:57.146Z,20.10
2018-07-07T21:57:32.013Z,20.00
2018-07-07T22:00:01.654Z,20.00
2018-07-07T22:05:16.902Z,19.90
2018-07-07T22:07:46.312Z,19.90
2018-07-07T22:10:15.796Z,19.80
2018-07-07T22:12:46.447Z,19.70
2018-07-07T22:28:15.814Z,19.70
2018-07-07T22:30:45.610Z,19.40
2018-07-07T22:33:20.246Z,19.30
2018-07-07T22:35:55.200Z,19.30
2018-07-07T22:38:30.837Z,19.30
2018-07-07T22:41:01.660Z,19.30
2018-07-07T22:43:31.331Z,19.30
2018-07-07T22:46:01.396Z,19.20
2018-07-07T22:48:30.859Z,19.20
2018-07-07T22:51:00.438Z,19.20
2018-07-07T22:53:30.025Z,19.10
2018-07-07T22:55:59.370Z,19.10
2018-07-07T22:58:28.732Z,19.00
2018-07-07T23:00:58.148Z,19.00
2018-07-07T23:03:27.740Z,19.00
2018-07-07T23:05:57.111Z,19.00
2018-07-07T23:08:27.264Z,19.00
2018-07-07T23:10:56.615Z,19.10
2018-07-07T23:13:26.037Z,19.00
2018-07-07T23:15:55.602Z,19.00
2018-07-07T23:18:25.376Z,19.00
2018-07-07T23:20:55.059Z,19.00
2018-07-07T23:23:25.697Z,19.00
2018-07-07T23:28:24.487Z,18.90
2018-07-07T23:33:23.019Z,18.90
2018-07-07T23:35:52.509Z,18.90
2018-07-07T23:38:22.744Z,18.90
2018-07-07T23:40:52.340Z,18.90
2018-07-07T23:43:23.087Z,18.80
2018-07-07T23:45:53.346Z,18.70
2018-07-07T23:48:22.663Z,18.70
2018-07-07T23:50:53.130Z,18.60
2018-07-07T23:53:22.586Z,18.60
2018-07-07T23:55:52.347Z,18.60
2018-07-07T23:58:22.159Z,18.50
